createdAt,value
2019-02-02T00:00:07.602Z,258.93
2019-02-02T00:02:36.613Z,234.73
2019-02-02T00:05:05.736Z,220.60
2019-02-02T00:07:34.836Z,218.33
2019-02-02T00:10:03.793Z,217.27
2019-02-02T00:12:32.925Z,206.60
2019-02-02T00:15:02.025Z,214.97
2019-02-02T00:17:31.183Z,226.80
2019-02-02T00:20:00.433Z,225.83
2019-02-02T00:22:29.632Z,270.97
2019-02-02T00:24:58.732Z,235.30
2019-02-02T00:27:27.712Z,221.77
2019-02-02T00:29:56.705Z,212.27
2019-02-02T00:32:25.663Z,209.90
2019-02-02T00:34:54.695Z,203.93
2019-02-02T00:37:23.885Z,209.20
2019-02-02T00:39:52.901Z,222.70
2019-02-02T00:42:21.914Z,223.97
2019-02-02T00:44:51.173Z,201.30
2019-02-02T00:47:20.384Z,213.57
2019-02-02T00:49:49.576Z,231.40
2019-02-02T00:52:18.665Z,221.43
2019-02-02T00:54:47.757Z,217.63
2019-02-02T00:57:16.927Z,203.97
2019-02-02T00:59:46.495Z,213.33
2019-02-02T01:02:16.070Z,207.47
2019-02-02T01:04:45.045Z,220.50
2019-02-02T01:07:14.157Z,224.20
2019-02-02T01:09:43.115Z,216.43
2019-02-02T01:12:12.146Z,212.63
2019-02-02T01:14:41.154Z,202.00
2019-02-02T01:17:10.208Z,213.23
2019-02-02T01:19:39.303Z,229.80
2019-02-02T01:22:08.294Z,231.50
2019-02-02T01:24:37.316Z,229.30
2019-02-02T01:27:07.242Z,232.80
2019-02-02T01:29:37.648Z,244.83
2019-02-02T01:32:07.670Z,251.27
2019-02-02T01:34:36.898Z,225.83
2019-02-02T01:37:07.171Z,223.67
2019-02-02T01:39:36.541Z,215.73
2019-02-02T01:42:06.498Z,203.17
2019-02-02T01:44:36.095Z,199.57
2019-02-02T01:47:05.893Z,198.83
2019-02-02T01:49:35.865Z,194.57
2019-02-02T01:52:06.064Z,205.73
2019-02-02T01:54:38.243Z,213.33
2019-02-02T01:57:05.677Z,204.00
2019-02-02T01:59:35.700Z,218.17
2019-02-02T02:02:05.812Z,210.10
2019-02-02T02:04:35.662Z,220.70
2019-02-02T02:07:05.573Z,240.50
2019-02-02T02:09:35.447Z,207.77
2019-02-02T02:12:05.179Z,210.20
2019-02-02T02:14:35.224Z,217.40
2019-02-02T02:17:05.415Z,218.80
2019-02-02T02:19:35.438Z,213.07
2019-02-02T02:22:05.347Z,218.10
2019-02-02T02:24:35.573Z,222.63
2019-02-02T02:27:05.710Z,241.27
2019-02-02T02:29:36.407Z,227.13
2019-02-02T02:32:06.685Z,217.60
2019-02-02T02:34:36.235Z,209.27
2019-02-02T02:37:06.277Z,219.40
2019-02-02T02:39:36.617Z,210.60
2019-02-02T02:42:06.495Z,222.40
2019-02-02T02:44:35.746Z,212.63
2019-02-02T02:47:05.862Z,222.13
2019-02-02T02:49:34.974Z,216.67
2019-02-02T02:52:04.114Z,205.83
2019-02-02T02:54:33.482Z,191.73
2019-02-02T02:57:03.041Z,196.37
2019-02-02T02:59:32.504Z,182.60
2019-02-02T03:02:02.232Z,189.83
2019-02-02T03:04:31.345Z,187.17
2019-02-02T03:07:01.245Z,180.73
2019-02-02T03:09:30.680Z,165.87
2019-02-02T03:12:01.056Z,169.17
2019-02-02T03:14:30.887Z,167.13
2019-02-02T03:17:01.130Z,171.93
2019-02-02T03:19:31.236Z,162.63
2019-02-02T03:22:01.325Z,153.93
2019-02-02T03:24:31.332Z,148.87
2019-02-02T03:27:01.503Z,148.90
2019-02-02T03:29:30.993Z,149.77
2019-02-02T03:32:01.246Z,141.47
2019-02-02T03:34:31.741Z,144.30
2019-02-02T03:37:01.004Z,134.90
2019-02-02T03:39:30.248Z,140.17
2019-02-02T03:41:59.675Z,141.47
2019-02-02T03:44:28.674Z,140.70
2019-02-02T03:46:58.168Z,132.57
2019-02-02T03:49:28.125Z,124.60
2019-02-02T03:51:57.256Z,124.13
2019-02-02T03:54:27.551Z,126.13
2019-02-02T03:56:57.388Z,123.90
2019-02-02T03:59:27.323Z,118.73
2019-02-02T04:01:57.732Z,123.43
2019-02-02T04:04:27.910Z,128.87
2019-02-02T04:06:57.936Z,113.70
2019-02-02T04:09:27.744Z,112.90
2019-02-02T04:11:57.778Z,114.93
2019-02-02T04:14:27.597Z,118.50
2019-02-02T04:16:57.197Z,110.10
2019-02-02T04:19:27.438Z,116.20
2019-02-02T04:21:57.428Z,114.73
2019-02-02T04:24:27.362Z,102.27
2019-02-02T04:26:57.072Z,114.87
2019-02-02T04:29:27.263Z,159.70
2019-02-02T04:31:57.411Z,134.53
2019-02-02T04:34:27.404Z,196.63
2019-02-02T04:36:57.141Z,129.00
2019-02-02T04:39:27.443Z,117.83
2019-02-02T04:41:57.407Z,135.03
2019-02-02T04:44:27.275Z,117.80
2019-02-02T04:46:57.198Z,119.17
2019-02-02T04:49:27.260Z,114.37
2019-02-02T04:51:57.101Z,121.33
2019-02-02T04:54:27.256Z,113.77
2019-02-02T04:56:57.451Z,165.23
2019-02-02T04:59:29.389Z,121.37
2019-02-02T05:01:58.062Z,210.90
2019-02-02T05:04:28.138Z,131.90
2019-02-02T05:06:58.061Z,143.73
2019-02-02T05:09:28.053Z,101.83
2019-02-02T05:11:57.915Z,103.83
2019-02-02T05:14:28.025Z,110.37
2019-02-02T05:16:58.307Z,104.07
2019-02-02T05:19:27.988Z,134.40
2019-02-02T05:21:58.061Z,107.13
2019-02-02T05:24:27.814Z,115.73
2019-02-02T05:26:57.773Z,121.00
2019-02-02T05:29:28.193Z,98.67
2019-02-02T05:32:00.204Z,113.00
2019-02-02T05:34:30.992Z,109.83
2019-02-02T05:37:00.447Z,103.03
2019-02-02T05:39:30.312Z,99.47
2019-02-02T05:41:59.808Z,84.93
2019-02-02T05:44:29.616Z,82.13
2019-02-02T05:46:59.427Z,93.13
2019-02-02T05:49:29.565Z,88.17
2019-02-02T05:51:59.203Z,95.50
2019-02-02T05:54:29.166Z,86.80
2019-02-02T05:56:58.983Z,102.37
2019-02-02T05:59:28.924Z,124.93
2019-02-02T06:01:58.904Z,92.97
2019-02-02T06:04:29.084Z,91.77
2019-02-02T06:06:59.046Z,95.03
2019-02-02T06:09:28.834Z,89.23
2019-02-02T06:11:58.774Z,96.53
2019-02-02T06:14:28.592Z,96.57
2019-02-02T06:16:58.443Z,90.40
2019-02-02T06:19:28.178Z,86.10
2019-02-02T06:21:57.924Z,98.00
2019-02-02T06:24:27.747Z,97.50
2019-02-02T06:26:57.224Z,86.30
2019-02-02T06:29:27.053Z,82.33
2019-02-02T06:31:56.361Z,90.30
2019-02-02T06:34:25.712Z,94.67
2019-02-02T06:36:55.778Z,96.47
2019-02-02T06:39:25.727Z,95.77
2019-02-02T06:41:55.813Z,84.00
2019-02-02T06:44:25.610Z,94.23
2019-02-02T06:46:55.568Z,86.60
2019-02-02T06:49:25.791Z,87.80
2019-02-02T06:51:55.380Z,95.20
2019-02-02T06:54:25.104Z,94.10
2019-02-02T06:56:55.093Z,89.43
2019-02-02T06:59:24.456Z,91.43
2019-02-02T07:01:53.972Z,104.83
2019-02-02T07:04:23.399Z,114.80
2019-02-02T07:06:53.362Z,91.40
2019-02-02T07:09:23.134Z,169.10
2019-02-02T07:11:52.800Z,104.00
2019-02-02T07:14:22.452Z,99.57
2019-02-02T07:16:52.161Z,95.63
2019-02-02T07:19:22.267Z,135.47
2019-02-02T07:21:52.037Z,239.63
2019-02-02T07:24:21.403Z,80.40
2019-02-02T07:26:51.247Z,93.20
2019-02-02T07:29:20.794Z,94.27
2019-02-02T07:31:50.640Z,94.13
2019-02-02T07:34:20.402Z,90.67
2019-02-02T07:36:50.052Z,85.83
2019-02-02T07:39:19.850Z,91.33
2019-02-02T07:41:50.118Z,84.70
2019-02-02T07:44:22.949Z,94.30
2019-02-02T07:46:54.302Z,88.53
2019-02-02T07:49:24.180Z,79.80
2019-02-02T07:52:03.081Z,84.33
2019-02-02T07:54:33.275Z,81.10
2019-02-02T07:57:03.384Z,80.80
2019-02-02T07:59:33.793Z,81.37
2019-02-02T08:02:03.405Z,76.20
2019-02-02T08:04:32.828Z,79.17
2019-02-02T08:07:02.740Z,84.20
2019-02-02T08:09:32.642Z,79.37
2019-02-02T08:12:02.472Z,81.70
2019-02-02T08:14:34.529Z,77.83
2019-02-02T08:17:05.222Z,75.60
2019-02-02T08:19:37.059Z,80.97
2019-02-02T08:22:13.532Z,81.13
2019-02-02T08:24:44.436Z,73.53
2019-02-02T08:27:14.037Z,74.60
2019-02-02T08:29:43.726Z,73.00
2019-02-02T08:32:14.865Z,72.67
2019-02-02T08:34:44.580Z,72.07
2019-02-02T08:37:13.788Z,74.33
2019-02-02T08:39:43.697Z,75.27
2019-02-02T08:42:13.832Z,74.50
2019-02-02T08:44:43.705Z,66.57
2019-02-02T08:47:13.648Z,76.03
2019-02-02T08:49:43.357Z,75.40
2019-02-02T08:52:15.956Z,63.50
2019-02-02T08:54:45.468Z,64.87
2019-02-02T08:57:14.906Z,88.87
2019-02-02T08:59:46.893Z,118.97
2019-02-02T09:02:17.461Z,72.93
2019-02-02T09:04:47.991Z,183.10
2019-02-02T09:07:19.013Z,84.57
2019-02-02T09:09:49.459Z,72.60
2019-02-02T09:12:19.302Z,64.23
2019-02-02T09:14:49.481Z,79.63
2019-02-02T09:17:19.100Z,93.47
2019-02-02T09:19:48.863Z,86.77
2019-02-02T09:22:18.652Z,77.80
2019-02-02T09:24:51.701Z,146.43
2019-02-02T09:27:20.741Z,128.93
2019-02-02T09:29:51.268Z,130.77
2019-02-02T09:32:21.120Z,81.00
2019-02-02T09:34:50.790Z,244.97
2019-02-02T09:37:20.222Z,78.43
2019-02-02T09:39:51.276Z,69.73
2019-02-02T09:42:22.163Z,80.50
2019-02-02T09:44:52.389Z,63.53
2019-02-02T09:47:23.094Z,69.07
2019-02-02T09:49:59.712Z,108.20
2019-02-02T09:52:31.959Z,84.33
2019-02-02T09:55:01.986Z,66.00
2019-02-02T09:57:31.755Z,61.20
2019-02-02T10:00:02.883Z,66.77
2019-02-02T10:02:41.210Z,59.87
2019-02-02T10:05:11.633Z,66.27
2019-02-02T10:07:41.668Z,64.83
2019-02-02T10:10:12.041Z,58.50
2019-02-02T10:12:42.952Z,83.13
2019-02-02T10:15:12.721Z,70.43
2019-02-02T10:17:42.628Z,62.33
2019-02-02T10:20:12.702Z,106.37
2019-02-02T10:22:45.250Z,65.90
2019-02-02T10:25:15.538Z,63.63
2019-02-02T10:27:45.551Z,56.27
2019-02-02T10:30:15.588Z,61.63
2019-02-02T10:32:46.068Z,61.17
2019-02-02T10:35:17.386Z,88.27
2019-02-02T10:37:47.096Z,102.60
2019-02-02T10:40:17.285Z,87.50
2019-02-02T10:42:46.998Z,76.23
2019-02-02T10:45:16.505Z,74.17
2019-02-02T10:47:46.954Z,83.43
2019-02-02T10:50:17.053Z,67.57
2019-02-02T10:52:46.551Z,73.30
2019-02-02T10:55:16.378Z,71.67
2019-02-02T10:57:46.210Z,66.87
2019-02-02T11:00:15.769Z,71.20
2019-02-02T11:02:45.478Z,67.67
2019-02-02T11:05:15.689Z,65.63
2019-02-02T11:07:45.646Z,155.83
2019-02-02T11:10:18.097Z,87.00
2019-02-02T11:12:46.393Z,68.60
2019-02-02T11:15:16.551Z,66.27
2019-02-02T11:17:46.923Z,62.20
2019-02-02T11:20:17.614Z,83.70
2019-02-02T11:22:46.803Z,83.83
2019-02-02T11:25:16.554Z,72.00
2019-02-02T11:27:46.729Z,66.90
2019-02-02T11:30:17.173Z,68.10
2019-02-02T11:32:46.948Z,72.70
2019-02-02T11:35:17.256Z,64.53
2019-02-02T11:37:47.502Z,64.00
2019-02-02T11:40:17.824Z,78.57
2019-02-02T11:42:47.617Z,76.23
2019-02-02T11:45:17.728Z,65.90
2019-02-02T11:47:47.619Z,66.07
2019-02-02T11:50:18.262Z,68.13
2019-02-02T11:52:47.906Z,67.33
2019-02-02T11:55:17.623Z,65.50
2019-02-02T11:57:50.040Z,69.57
2019-02-02T12:00:18.949Z,66.27
2019-02-02T12:02:49.527Z,71.20
2019-02-02T12:05:18.494Z,70.50
2019-02-02T12:07:48.414Z,106.63
2019-02-02T12:10:18.611Z,96.70
2019-02-02T12:12:48.327Z,78.93
2019-02-02T12:15:18.419Z,83.03
2019-02-02T12:17:47.953Z,94.73
2019-02-02T12:20:17.627Z,139.87
2019-02-02T12:22:48.083Z,137.40
2019-02-02T12:25:18.213Z,148.40
2019-02-02T12:27:48.463Z,126.63
2019-02-02T12:30:17.523Z,121.23
2019-02-02T12:32:47.047Z,106.30
2019-02-02T12:35:16.089Z,105.70
2019-02-02T12:37:46.322Z,95.60
2019-02-02T12:40:16.139Z,90.00
2019-02-02T12:42:46.530Z,86.63
2019-02-02T12:45:16.099Z,83.37
2019-02-02T12:47:45.558Z,88.47
2019-02-02T12:50:14.711Z,78.03
2019-02-02T12:52:45.905Z,76.13
2019-02-02T12:55:15.926Z,89.77
2019-02-02T12:57:45.163Z,89.90
2019-02-02T13:00:20.420Z,85.90
2019-02-02T13:02:56.229Z,85.70
2019-02-02T13:05:26.268Z,89.60
2019-02-02T13:07:55.916Z,107.13
2019-02-02T13:10:25.472Z,89.97
2019-02-02T13:12:57.962Z,87.80
2019-02-02T13:15:27.688Z,90.90
2019-02-02T13:18:01.127Z,99.03
2019-02-02T13:20:31.211Z,99.73
2019-02-02T13:23:00.115Z,87.73
2019-02-02T13:25:29.560Z,87.67
2019-02-02T13:27:59.668Z,86.43
2019-02-02T13:30:30.102Z,78.70
2019-02-02T13:32:59.570Z,92.13
2019-02-02T13:35:29.442Z,93.83
2019-02-02T13:37:58.513Z,96.73
2019-02-02T13:40:27.721Z,100.83
2019-02-02T13:42:58.389Z,104.43
2019-02-02T13:45:29.408Z,101.53
2019-02-02T13:48:04.654Z,102.60
2019-02-02T13:50:40.106Z,108.67
2019-02-02T13:53:13.722Z,220.53
2019-02-02T13:55:49.050Z,206.07
2019-02-02T13:58:19.283Z,150.03
2019-02-02T14:00:54.051Z,135.97
2019-02-02T14:03:31.035Z,143.73
2019-02-02T14:06:05.118Z,168.97
2019-02-02T14:08:36.087Z,201.17
2019-02-02T14:11:06.009Z,195.47
2019-02-02T14:13:35.306Z,170.27
2019-02-02T14:16:04.278Z,188.33
2019-02-02T14:18:38.683Z,265.57
2019-02-02T14:21:12.321Z,338.40
2019-02-02T14:23:45.644Z,331.03
2019-02-02T14:28:48.469Z,296.27
2019-02-02T14:33:51.738Z,208.43
2019-02-02T14:36:22.127Z,232.10
2019-02-02T14:38:51.655Z,230.43
2019-02-02T14:41:20.846Z,213.20
2019-02-02T14:43:51.368Z,210.07
2019-02-02T14:46:23.454Z,198.83
2019-02-02T14:51:26.235Z,182.70
2019-02-02T14:53:55.416Z,216.43
2019-02-02T14:56:26.483Z,153.63
2019-02-02T14:58:57.039Z,166.03
2019-02-02T15:03:59.086Z,162.93
2019-02-02T15:09:03.813Z,169.97
2019-02-02T15:11:33.931Z,163.47
2019-02-02T15:19:08.831Z,167.57
2019-02-02T15:21:37.991Z,164.90
2019-02-02T15:26:39.781Z,160.67
2019-02-02T15:29:10.530Z,153.97
2019-02-02T15:34:12.493Z,154.07
2019-02-02T15:36:42.899Z,150.27
2019-02-02T15:41:52.573Z,147.40
2019-02-02T15:44:15.427Z,213.27
2019-02-02T15:46:49.131Z,180.90
2019-02-02T15:49:14.835Z,165.20
2019-02-02T15:51:44.008Z,174.67
2019-02-02T15:54:12.918Z,162.27
2019-02-02T15:56:42.728Z,139.70
2019-02-02T15:59:12.974Z,133.50
2019-02-02T16:01:42.872Z,141.90
2019-02-02T16:04:13.222Z,132.13
2019-02-02T16:06:43.188Z,143.67
2019-02-02T16:09:13.048Z,160.77
2019-02-02T16:11:43.077Z,182.83
2019-02-02T16:14:13.481Z,191.73
2019-02-02T16:16:43.602Z,190.00
2019-02-02T16:19:13.944Z,186.87
2019-02-02T16:21:43.982Z,186.77
2019-02-02T16:24:13.537Z,168.13
2019-02-02T16:26:43.170Z,175.07
2019-02-02T16:29:12.863Z,184.57
2019-02-02T16:31:43.119Z,195.23
2019-02-02T16:34:13.115Z,192.53
2019-02-02T16:36:42.934Z,201.00
2019-02-02T16:39:13.028Z,211.10
2019-02-02T16:41:42.739Z,207.73
2019-02-02T16:44:13.178Z,195.27
2019-02-02T16:46:43.545Z,195.67
2019-02-02T16:49:13.607Z,197.57
2019-02-02T16:51:43.019Z,201.53
2019-02-02T16:54:13.123Z,191.77
2019-02-02T16:56:43.593Z,189.07
2019-02-02T16:59:13.467Z,189.70
2019-02-02T17:01:44.249Z,220.50
2019-02-02T17:04:16.171Z,215.83
2019-02-02T17:06:45.887Z,201.93
2019-02-02T17:09:18.255Z,192.73
2019-02-02T17:11:48.599Z,192.40
2019-02-02T17:14:19.017Z,196.77
2019-02-02T17:16:48.706Z,209.77
2019-02-02T17:19:19.421Z,188.87
2019-02-02T17:21:49.860Z,201.07
2019-02-02T17:24:22.156Z,207.60
2019-02-02T17:26:52.504Z,228.33
2019-02-02T17:29:23.507Z,230.80
2019-02-02T17:31:53.405Z,227.87
2019-02-02T17:34:27.363Z,220.20
2019-02-02T17:36:55.688Z,225.00
2019-02-02T17:39:27.057Z,218.63
2019-02-02T17:41:57.382Z,212.83
2019-02-02T17:44:27.025Z,219.33
2019-02-02T17:46:57.323Z,221.97
2019-02-02T17:49:28.106Z,233.63
2019-02-02T17:51:57.610Z,294.30
2019-02-02T17:54:27.595Z,336.87
2019-02-02T17:56:58.607Z,275.70
2019-02-02T17:59:30.114Z,230.23
2019-02-02T18:01:58.956Z,215.10
2019-02-02T18:04:38.839Z,221.37
2019-02-02T18:07:00.192Z,223.70
2019-02-02T18:09:30.958Z,222.60
2019-02-02T18:12:02.657Z,209.83
2019-02-02T18:14:32.881Z,223.13
2019-02-02T18:17:02.533Z,209.13
2019-02-02T18:22:06.959Z,205.70
2019-02-02T18:24:36.928Z,215.43
2019-02-02T18:27:06.791Z,215.67
2019-02-02T18:29:37.011Z,202.03
2019-02-02T18:32:13.213Z,204.93
2019-02-02T18:34:38.076Z,202.47
2019-02-02T18:37:09.277Z,202.87
2019-02-02T18:39:40.228Z,198.53
2019-02-02T18:42:12.256Z,206.80
2019-02-02T18:44:42.256Z,205.87
2019-02-02T18:47:11.867Z,206.27
2019-02-02T18:49:41.908Z,210.87
2019-02-02T18:52:12.454Z,209.90
2019-02-02T18:54:41.941Z,216.33
2019-02-02T18:57:12.431Z,219.03
2019-02-02T18:59:42.544Z,213.13
2019-02-02T19:02:13.250Z,217.57
2019-02-02T19:04:43.188Z,225.43
2019-02-02T19:07:12.588Z,209.57
2019-02-02T19:09:42.476Z,210.83
2019-02-02T19:12:12.549Z,208.47
